createdAt,value
2022-12-04T00:06:27.216Z,91.6
2022-12-04T00:16:27.309Z,91.7
2022-12-04T00:26:27.269Z,91.5
2022-12-04T00:46:27.383Z,91.1
2022-12-04T00:56:27.327Z,91.2
2022-12-04T01:16:27.488Z,90
2022-12-04T01:26:27.444Z,89.9
2022-12-04T01:36:27.481Z,89.7
2022-12-04T01:46:27.625Z,89.8
2022-12-04T01:56:27.536Z,89.7
2022-12-04T02:06:27.566Z,90.1
2022-12-04T02:16:27.658Z,89.7
2022-12-04T02:26:27.606Z,90
2022-12-04T02:36:27.627Z,89.7
2022-12-04T02:46:27.781Z,89.5
2022-12-04T02:56:27.717Z,89.9
2022-12-04T03:06:27.747Z,90
2022-12-04T03:16:27.783Z,90.1
2022-12-04T03:26:27.786Z,90.1
2022-12-04T03:36:27.823Z,90.4
2022-12-04T03:46:27.872Z,90.4
2022-12-04T03:56:27.912Z,90.4
2022-12-04T04:16:27.921Z,90.5
2022-12-04T04:26:27.928Z,90.4
2022-12-04T04:36:28.001Z,90.5
2022-12-04T04:46:28.068Z,90.4
2022-12-04T04:56:28.043Z,90.6
2022-12-04T05:06:28.051Z,90.5
2022-12-04T05:16:28.154Z,90.7
2022-12-04T05:26:28.111Z,91
2022-12-04T05:36:28.148Z,90.9
2022-12-04T05:56:28.212Z,91.5
2022-12-04T06:06:28.209Z,91.5
2022-12-04T06:16:28.393Z,91.7
2022-12-04T06:26:28.266Z,91.7
2022-12-04T06:36:28.329Z,92
2022-12-04T06:46:28.393Z,92
2022-12-04T07:16:28.604Z,92.3
2022-12-04T07:36:28.508Z,92.7
2022-12-04T07:46:28.594Z,92.5
2022-12-04T07:56:28.568Z,92.4
2022-12-04T08:06:28.552Z,92.4
2022-12-04T08:16:28.706Z,92.5
2022-12-04T08:36:28.688Z,92.5
2022-12-04T08:46:28.804Z,92.4
2022-12-04T08:56:28.741Z,92.7
2022-12-04T09:16:28.908Z,92.6
2022-12-04T09:26:28.804Z,92.4
2022-12-04T09:36:28.886Z,92.5
2022-12-04T09:56:28.931Z,92.2
2022-12-04T10:06:28.919Z,91.9
2022-12-04T10:16:29.006Z,92
2022-12-04T10:36:29.000Z,91.9
2022-12-04T10:46:29.156Z,91.9
2022-12-04T10:56:29.105Z,91.9
2022-12-04T11:36:29.193Z,91.9
2022-12-04T11:46:29.376Z,91.9
2022-12-04T12:06:29.277Z,92.1
2022-12-04T12:16:29.340Z,91.9
2022-12-04T12:36:29.349Z,91.9
2022-12-04T12:56:29.396Z,92
2022-12-04T13:06:29.400Z,92.3
2022-12-04T13:16:29.506Z,92.3
2022-12-04T13:26:29.463Z,92.7
2022-12-04T13:36:29.573Z,92.5
2022-12-04T13:46:29.628Z,92.6
2022-12-04T13:56:29.591Z,92.5
2022-12-04T14:16:29.712Z,93.2
2022-12-04T14:46:29.806Z,92.9
2022-12-04T15:06:29.804Z,93.2
2022-12-04T15:46:30.015Z,93.7
2022-12-04T15:56:29.936Z,93.9
2022-12-04T16:06:30.050Z,93.8
2022-12-04T16:26:29.979Z,94.3
2022-12-04T16:36:30.019Z,94.5
2022-12-04T16:56:30.060Z,94.4
2022-12-04T17:06:30.077Z,94.5
2022-12-04T17:26:30.146Z,94.3
2022-12-04T17:36:30.147Z,94.3
2022-12-04T17:46:30.252Z,94.1
2022-12-04T17:56:30.211Z,94.3
2022-12-04T18:06:30.267Z,94.4
2022-12-04T18:16:30.336Z,94.5
2022-12-04T18:46:30.452Z,94.8
2022-12-04T18:56:30.370Z,94.8
2022-12-04T19:06:30.491Z,94.8
2022-12-04T19:16:30.479Z,94.8
2022-12-04T19:26:30.475Z,94.9
2022-12-04T19:36:30.477Z,94.8
2022-12-04T19:56:30.549Z,94.5
2022-12-04T20:06:30.547Z,94.8
2022-12-04T20:26:30.644Z,95.8
2022-12-04T20:46:30.754Z,96.5
